createdAt,value
2019-04-01T00:00:52.695Z,68.44
2019-04-01T00:03:21.026Z,68.52
2019-04-01T00:05:49.307Z,68.42
2019-04-01T00:08:17.616Z,68.52
2019-04-01T00:10:45.907Z,68.57
2019-04-01T00:13:14.224Z,68.59
2019-04-01T00:15:42.508Z,68.76
2019-04-01T00:18:10.814Z,68.79
2019-04-01T00:20:39.431Z,68.88
2019-04-01T00:23:07.876Z,68.93
2019-04-01T00:25:36.276Z,69.11
2019-04-01T00:28:04.633Z,69.39
2019-04-01T00:30:32.928Z,69.37
2019-04-01T00:33:01.230Z,69.41
2019-04-01T00:35:29.547Z,69.62
2019-04-01T00:37:57.845Z,69.69
2019-04-01T00:40:26.214Z,69.60
2019-04-01T00:42:56.171Z,69.70
2019-04-01T00:45:26.408Z,69.81
2019-04-01T00:47:54.718Z,70.02
2019-04-01T00:50:23.023Z,69.93
2019-04-01T00:52:51.654Z,70.21
2019-04-01T00:55:20.220Z,70.02
2019-04-01T00:57:48.503Z,70.36
2019-04-01T01:00:17.960Z,70.72
2019-04-01T01:02:46.589Z,70.39
2019-04-01T01:05:14.888Z,70.79
2019-04-01T01:07:43.195Z,70.86
2019-04-01T01:10:11.782Z,70.87
2019-04-01T01:12:40.310Z,70.70
2019-04-01T01:15:08.701Z,71.09
2019-04-01T01:17:37.283Z,71.03
2019-04-01T01:20:06.745Z,71.14
2019-04-01T01:22:35.060Z,71.02
2019-04-01T01:25:04.343Z,70.96
2019-04-01T01:27:32.931Z,71.38
2019-04-01T01:30:01.220Z,71.60
2019-04-01T01:32:29.619Z,71.42
2019-04-01T01:34:58.014Z,71.37
2019-04-01T01:37:27.072Z,71.26
2019-04-01T01:39:56.421Z,71.32
2019-04-01T01:42:24.701Z,71.08
2019-04-01T01:44:53.033Z,71.30
2019-04-01T01:47:21.310Z,71.49
2019-04-01T01:49:49.981Z,71.62
2019-04-01T01:52:18.277Z,71.74
2019-04-01T01:54:46.612Z,71.74
2019-04-01T01:57:15.215Z,71.61
2019-04-01T01:59:43.542Z,71.89
2019-04-01T02:02:11.838Z,71.86
2019-04-01T02:04:40.141Z,71.90
2019-04-01T02:07:08.454Z,72.37
2019-04-01T02:09:36.847Z,72.37
2019-04-01T02:12:05.140Z,72.25
2019-04-01T02:14:33.781Z,72.43
2019-04-01T02:17:02.058Z,72.57
2019-04-01T02:19:30.360Z,72.66
2019-04-01T02:21:58.638Z,72.73
2019-04-01T02:24:26.953Z,72.58
2019-04-01T02:26:55.247Z,72.89
2019-04-01T02:29:23.542Z,72.39
2019-04-01T02:31:51.837Z,72.61
2019-04-01T02:34:20.176Z,72.72
2019-04-01T02:36:48.778Z,72.98
2019-04-01T02:39:17.085Z,72.91
2019-04-01T02:41:45.387Z,72.85
2019-04-01T02:44:13.919Z,73.00
2019-04-01T02:46:42.228Z,73.44
2019-04-01T02:49:10.554Z,73.37
2019-04-01T02:51:38.872Z,73.30
2019-04-01T02:54:07.163Z,73.63
2019-04-01T02:56:35.479Z,73.72
2019-04-01T02:59:03.785Z,73.99
2019-04-01T03:01:32.095Z,73.79
2019-04-01T03:04:00.401Z,73.91
2019-04-01T03:06:28.708Z,73.80
2019-04-01T03:08:56.986Z,74.03
2019-04-01T03:11:25.261Z,73.66
2019-04-01T03:13:53.579Z,74.04
2019-04-01T03:16:21.888Z,74.42
2019-04-01T03:18:50.327Z,74.42
2019-04-01T03:21:18.669Z,74.45
2019-04-01T03:23:46.997Z,74.65
2019-04-01T03:26:15.300Z,74.79
2019-04-01T03:28:43.908Z,74.76
2019-04-01T03:31:12.308Z,74.91
2019-04-01T03:33:40.631Z,75.07
2019-04-01T03:36:09.083Z,75.00
2019-04-01T03:38:37.639Z,75.08
2019-04-01T03:41:06.497Z,75.12
2019-04-01T03:43:34.809Z,75.21
2019-04-01T03:46:03.106Z,75.35
2019-04-01T03:48:31.387Z,75.32
2019-04-01T03:50:59.680Z,75.17
2019-04-01T03:53:27.989Z,75.26
2019-04-01T03:55:56.308Z,75.59
2019-04-01T03:58:24.589Z,75.56
2019-04-01T04:00:52.905Z,75.66
2019-04-01T04:03:21.196Z,75.68
2019-04-01T04:05:49.777Z,75.63
2019-04-01T04:08:18.080Z,75.84
2019-04-01T04:10:46.497Z,75.81
2019-04-01T04:13:14.766Z,75.92
2019-04-01T04:15:43.150Z,76.00
2019-04-01T04:18:12.279Z,75.76
2019-04-01T04:20:40.592Z,75.73
2019-04-01T04:23:09.145Z,75.82
2019-04-01T04:25:37.715Z,75.88
2019-04-01T04:28:06.012Z,75.78
2019-04-01T04:30:34.318Z,75.72
2019-04-01T04:33:02.618Z,75.64
2019-04-01T04:35:30.939Z,75.65
2019-04-01T04:37:59.213Z,75.89
2019-04-01T04:40:27.524Z,76.15
2019-04-01T04:42:55.834Z,76.00
2019-04-01T04:45:24.454Z,75.92
2019-04-01T04:47:52.737Z,75.85
2019-04-01T04:50:21.023Z,75.92
2019-04-01T04:52:49.335Z,75.99
2019-04-01T04:55:17.638Z,76.06
2019-04-01T04:57:46.240Z,76.06
2019-04-01T05:00:14.705Z,76.31
2019-04-01T05:02:43.009Z,76.15
2019-04-01T05:05:11.303Z,76.25
2019-04-01T05:07:39.611Z,76.21
2019-04-01T05:10:08.168Z,76.11
2019-04-01T05:12:36.464Z,76.18
2019-04-01T05:15:06.709Z,76.36
2019-04-01T05:17:35.276Z,76.18
2019-04-01T05:20:05.478Z,76.23
2019-04-01T05:22:34.561Z,76.08
2019-04-01T05:25:04.091Z,76.03
2019-04-01T05:27:32.656Z,76.06
2019-04-01T05:30:01.015Z,75.99
2019-04-01T05:32:30.669Z,75.99
2019-04-01T05:35:00.633Z,75.78
2019-04-01T05:39:01.183Z,75.49
2019-04-01T05:41:29.565Z,75.89
2019-04-01T05:43:58.189Z,75.83
2019-04-01T05:46:26.552Z,75.68
2019-04-01T05:48:54.863Z,75.47
2019-04-01T05:51:23.224Z,75.40
2019-04-01T05:53:51.531Z,75.27
2019-04-01T05:56:19.827Z,75.25
2019-04-01T05:58:48.513Z,75.03
2019-04-01T06:01:18.717Z,74.85
2019-04-01T06:03:47.048Z,74.77
2019-04-01T06:06:15.699Z,74.71
2019-04-01T06:08:44.259Z,74.37
2019-04-01T06:11:12.553Z,74.49
2019-04-01T06:13:40.891Z,74.50
2019-04-01T06:16:09.248Z,74.33
2019-04-01T06:18:37.704Z,74.13
2019-04-01T06:21:06.079Z,74.30
2019-04-01T06:23:34.446Z,74.18
2019-04-01T06:26:02.906Z,74.12
2019-04-01T06:28:31.195Z,73.77
2019-04-01T06:30:59.876Z,73.64
2019-04-01T06:33:28.700Z,73.78
2019-04-01T06:35:57.274Z,73.67
2019-04-01T06:38:25.839Z,73.33
2019-04-01T06:40:54.155Z,73.24
2019-04-01T06:43:22.473Z,73.19
2019-04-01T06:45:50.746Z,73.04
2019-04-01T06:48:19.049Z,72.52
2019-04-01T06:50:47.345Z,71.29
2019-04-01T06:53:15.732Z,70.87
2019-04-01T06:55:44.392Z,70.28
2019-04-01T06:58:12.778Z,70.18
2019-04-01T07:00:41.053Z,69.30
2019-04-01T07:03:09.432Z,68.99
2019-04-01T07:05:37.821Z,69.23
2019-04-01T07:08:06.142Z,68.89
2019-04-01T07:10:34.969Z,68.91
2019-04-01T07:13:03.378Z,68.16
2019-04-01T07:15:31.711Z,67.88
2019-04-01T07:18:00.095Z,67.72
2019-04-01T07:20:28.779Z,67.07
2019-04-01T07:22:57.038Z,66.55
2019-04-01T07:25:25.639Z,64.78
2019-04-01T07:27:54.344Z,64.19
2019-04-01T07:30:22.796Z,63.64
2019-04-01T07:32:51.104Z,63.86
2019-04-01T07:35:19.494Z,63.48
2019-04-01T07:37:47.866Z,62.36
2019-04-01T07:40:16.529Z,62.45
2019-04-01T07:42:44.819Z,62.56
2019-04-01T07:45:13.488Z,61.44
2019-04-01T07:47:41.773Z,61.58
2019-04-01T07:50:12.501Z,61.37
2019-04-01T07:52:41.193Z,61.41
2019-04-01T07:55:09.660Z,60.52
2019-04-01T07:57:38.374Z,60.35
2019-04-01T08:00:07.250Z,59.18
2019-04-01T08:02:35.625Z,59.60
2019-04-01T08:05:04.843Z,59.47
2019-04-01T08:07:33.401Z,58.99
2019-04-01T08:10:01.693Z,58.47
2019-04-01T08:12:30.272Z,58.41
2019-04-01T08:14:58.557Z,58.23
2019-04-01T08:17:26.867Z,58.30
2019-04-01T08:19:55.226Z,57.40
2019-04-01T08:22:23.549Z,56.84
2019-04-01T08:24:51.846Z,56.24
2019-04-01T08:27:20.176Z,56.48
2019-04-01T08:29:48.493Z,56.01
2019-04-01T08:32:16.805Z,56.18
2019-04-01T08:34:45.199Z,55.74
2019-04-01T08:37:13.555Z,55.83
2019-04-01T08:39:41.862Z,55.57
2019-04-01T08:42:10.337Z,55.36
2019-04-01T08:44:38.998Z,54.82
2019-04-01T08:47:07.598Z,54.47
2019-04-01T08:49:35.940Z,54.66
2019-04-01T08:52:04.728Z,54.87
2019-04-01T08:54:33.029Z,54.74
2019-04-01T08:57:01.377Z,54.65
2019-04-01T08:59:29.713Z,53.87
2019-04-01T09:01:58.065Z,54.19
2019-04-01T09:04:26.377Z,53.25
2019-04-01T09:06:55.014Z,53.30
2019-04-01T09:09:24.258Z,52.35
2019-04-01T09:11:54.109Z,53.02
2019-04-01T09:14:23.118Z,53.28
2019-04-01T09:16:51.959Z,53.13
2019-04-01T09:19:20.244Z,52.46
2019-04-01T09:21:48.809Z,52.25
2019-04-01T09:24:17.132Z,52.21
2019-04-01T09:26:45.435Z,52.09
2019-04-01T09:29:13.731Z,52.06
2019-04-01T09:31:42.124Z,52.24
2019-04-01T09:34:10.421Z,52.40
2019-04-01T09:36:39.035Z,51.43
2019-04-01T09:39:07.942Z,51.27
2019-04-01T09:41:36.228Z,51.42
2019-04-01T09:44:04.619Z,51.18
2019-04-01T09:46:32.993Z,50.81
2019-04-01T09:49:01.636Z,51.16
2019-04-01T09:51:30.242Z,51.36
2019-04-01T09:53:58.628Z,51.40
2019-04-01T09:56:27.180Z,50.95
2019-04-01T09:58:55.775Z,51.67
2019-04-01T10:01:24.349Z,50.65
2019-04-01T10:03:52.664Z,50.71
2019-04-01T10:06:20.948Z,50.98
2019-04-01T10:08:49.255Z,51.11
2019-04-01T10:11:17.824Z,50.92
2019-04-01T10:13:46.209Z,51.16
2019-04-01T10:16:14.833Z,51.16
2019-04-01T10:18:43.150Z,51.18
2019-04-01T10:21:11.514Z,50.58
2019-04-01T10:23:39.899Z,50.45
2019-04-01T10:26:08.202Z,50.66
2019-04-01T10:28:36.545Z,50.48
2019-04-01T10:31:05.001Z,50.50
2019-04-01T10:33:33.679Z,50.59
2019-04-01T10:36:02.267Z,50.42
2019-04-01T10:38:30.558Z,50.26
2019-04-01T10:40:58.967Z,49.59
2019-04-01T10:43:27.266Z,49.39
2019-04-01T10:45:55.883Z,50.20
2019-04-01T10:48:24.227Z,49.83
2019-04-01T10:50:52.689Z,49.76
2019-04-01T10:53:21.085Z,49.88
2019-04-01T10:55:49.404Z,49.96
2019-04-01T10:58:18.035Z,49.38
2019-04-01T11:00:46.452Z,49.65
2019-04-01T11:03:15.108Z,49.63
2019-04-01T11:05:43.447Z,48.85
2019-04-01T11:08:12.227Z,49.59
2019-04-01T11:10:40.493Z,48.84
2019-04-01T11:13:08.794Z,49.86
2019-04-01T11:15:37.113Z,49.33
2019-04-01T11:18:05.436Z,49.02
2019-04-01T11:20:33.757Z,49.06
2019-04-01T11:23:02.815Z,48.17
2019-04-01T11:25:31.831Z,48.48
2019-04-01T11:28:00.122Z,48.83
2019-04-01T11:30:28.444Z,48.68
2019-04-01T11:32:56.766Z,48.93
2019-04-01T11:35:25.073Z,49.02
2019-04-01T11:37:53.349Z,48.76
2019-04-01T11:40:21.680Z,48.95
2019-04-01T11:42:50.025Z,48.92
2019-04-01T11:45:18.310Z,48.87
2019-04-01T11:47:46.613Z,49.01
2019-04-01T11:50:15.106Z,48.26
2019-04-01T11:52:43.770Z,47.78
2019-04-01T11:55:12.121Z,47.68
2019-04-01T11:57:40.979Z,48.30
2019-04-01T12:00:13.263Z,47.82
2019-04-01T12:02:42.181Z,48.18
2019-04-01T12:05:10.972Z,47.83
2019-04-01T12:07:39.324Z,47.77
2019-04-01T12:10:08.325Z,48.00
2019-04-01T12:12:36.628Z,48.28
2019-04-01T12:15:06.550Z,47.56
2019-04-01T12:17:35.338Z,46.94
2019-04-01T12:20:04.521Z,46.10
2019-04-01T12:22:32.811Z,46.34
2019-04-01T12:25:01.143Z,46.46
2019-04-01T12:27:29.437Z,46.34
2019-04-01T12:29:58.236Z,46.85
2019-04-01T12:32:26.546Z,45.84
2019-04-01T12:34:54.901Z,45.56
2019-04-01T12:37:23.196Z,45.86
2019-04-01T12:39:51.543Z,46.00
2019-04-01T12:42:19.853Z,46.59
2019-04-01T12:44:48.164Z,47.10
2019-04-01T12:47:16.799Z,45.92
2019-04-01T12:49:45.105Z,45.89
2019-04-01T12:52:13.856Z,45.83
2019-04-01T12:54:42.140Z,45.40
2019-04-01T12:57:10.815Z,46.02
2019-04-01T12:59:39.122Z,46.41
2019-04-01T13:02:07.780Z,45.42
2019-04-01T13:04:36.301Z,45.65
2019-04-01T13:07:05.240Z,45.79
2019-04-01T13:09:33.875Z,45.59
2019-04-01T13:12:02.261Z,45.51
2019-04-01T13:14:30.595Z,45.66
2019-04-01T13:16:58.919Z,46.28
2019-04-01T13:19:27.562Z,45.91
2019-04-01T13:21:55.863Z,45.78
2019-04-01T13:24:24.153Z,45.07
2019-04-01T13:26:52.475Z,46.09
2019-04-01T13:29:20.783Z,46.02
2019-04-01T13:31:49.148Z,45.77
2019-04-01T13:34:20.125Z,45.85
2019-04-01T13:36:47.604Z,45.69
2019-04-01T13:39:15.958Z,45.18
2019-04-01T13:41:45.492Z,45.91
2019-04-01T13:44:14.415Z,45.82
2019-04-01T13:46:42.994Z,45.86
2019-04-01T13:49:11.318Z,45.44
2019-04-01T13:51:43.031Z,44.21
2019-04-01T13:54:11.426Z,45.05
2019-04-01T13:56:40.398Z,45.27
2019-04-01T13:59:09.965Z,44.77
2019-04-01T14:01:39.108Z,44.28
2019-04-01T14:04:07.432Z,44.70
2019-04-01T14:06:35.755Z,45.23
2019-04-01T14:09:06.243Z,44.65
2019-04-01T14:11:34.592Z,45.02
2019-04-01T14:14:02.990Z,44.19
2019-04-01T14:16:31.292Z,44.51
2019-04-01T14:18:59.595Z,44.83
2019-04-01T14:21:27.936Z,44.98
2019-04-01T14:23:56.238Z,44.35
2019-04-01T14:26:24.547Z,44.61
2019-04-01T14:28:53.010Z,44.35
2019-04-01T14:31:21.337Z,43.84
2019-04-01T14:33:49.627Z,43.44
2019-04-01T14:36:17.929Z,43.67
2019-04-01T14:38:46.271Z,44.19
2019-04-01T14:41:14.527Z,44.04
2019-04-01T14:43:42.827Z,43.73
2019-04-01T14:46:11.214Z,43.61
2019-04-01T14:48:40.085Z,43.63
2019-04-01T14:51:08.843Z,43.58
2019-04-01T14:53:37.951Z,43.77
2019-04-01T14:56:06.491Z,43.72
2019-04-01T14:58:34.821Z,44.04
2019-04-01T15:01:03.135Z,43.52
2019-04-01T15:03:31.745Z,43.60
2019-04-01T15:06:00.334Z,43.93
2019-04-01T15:08:28.651Z,44.00
2019-04-01T15:10:57.305Z,43.58
2019-04-01T15:13:25.624Z,43.57
2019-04-01T15:15:54.172Z,43.80
2019-04-01T15:18:22.830Z,43.72
2019-04-01T15:20:51.127Z,43.71
2019-04-01T15:23:19.802Z,42.64
2019-04-01T15:25:48.089Z,42.56
2019-04-01T15:28:16.407Z,42.86
2019-04-01T15:30:44.759Z,42.97
2019-04-01T15:33:13.112Z,43.37
2019-04-01T15:35:41.687Z,43.10
2019-04-01T15:38:10.384Z,42.94
2019-04-01T15:40:38.671Z,42.33
2019-04-01T15:43:06.966Z,42.81
2019-04-01T15:45:35.740Z,42.93
2019-04-01T15:48:04.135Z,43.43
2019-04-01T15:50:32.449Z,43.64
2019-04-01T15:53:01.014Z,43.49
2019-04-01T15:55:29.316Z,43.67
2019-04-01T15:57:57.627Z,43.21
2019-04-01T16:00:25.918Z,43.34
2019-04-01T16:02:54.230Z,43.18
2019-04-01T16:05:22.562Z,42.96
2019-04-01T16:07:50.852Z,42.95
2019-04-01T16:10:20.966Z,42.67
2019-04-01T16:12:49.322Z,42.36
2019-04-01T16:15:17.738Z,42.62
2019-04-01T16:17:46.391Z,42.90
2019-04-01T16:20:14.855Z,42.99
2019-04-01T16:22:43.787Z,43.09
2019-04-01T16:25:13.420Z,43.36
2019-04-01T16:27:43.070Z,43.36
2019-04-01T16:30:11.538Z,43.53
2019-04-01T16:32:39.883Z,43.62
2019-04-01T16:35:08.286Z,43.47
2019-04-01T16:37:36.621Z,43.08
2019-04-01T16:40:06.306Z,42.84
2019-04-01T16:42:34.730Z,42.86
2019-04-01T16:45:04.897Z,43.17
2019-04-01T16:47:33.215Z,43.34
2019-04-01T16:50:01.537Z,43.48
2019-04-01T16:52:30.147Z,43.63
2019-04-01T16:55:00.907Z,43.35
2019-04-01T16:57:29.467Z,43.51
2019-04-01T16:59:57.759Z,43.97
2019-04-01T17:02:26.082Z,44.16
2019-04-01T17:04:54.396Z,43.79
2019-04-01T17:07:22.794Z,43.75
2019-04-01T17:09:51.090Z,43.94
2019-04-01T17:12:19.385Z,44.13
2019-04-01T17:14:47.706Z,44.15
2019-04-01T17:17:16.001Z,44.44
2019-04-01T17:19:44.577Z,44.82
2019-04-01T17:22:12.864Z,45.15
2019-04-01T17:24:41.183Z,45.34
2019-04-01T17:27:11.999Z,45.28
2019-04-01T17:29:42.606Z,45.38
2019-04-01T17:32:10.901Z,45.61
2019-04-01T17:34:39.226Z,45.80
2019-04-01T17:37:08.291Z,46.22
2019-04-01T17:39:37.520Z,46.52
2019-04-01T17:42:06.341Z,46.60
2019-04-01T17:44:34.736Z,46.70
2019-04-01T17:47:03.025Z,46.80
2019-04-01T17:49:31.440Z,46.87
2019-04-01T17:51:59.719Z,47.04
2019-04-01T17:54:28.298Z,47.19
2019-04-01T17:56:56.602Z,47.35
2019-04-01T17:59:25.294Z,47.58
2019-04-01T18:01:56.862Z,47.78
2019-04-01T18:04:23.717Z,47.90
2019-04-01T18:06:52.098Z,48.03
2019-04-01T18:09:20.450Z,48.03
2019-04-01T18:11:48.772Z,48.24
2019-04-01T18:14:17.065Z,48.33
2019-04-01T18:16:45.395Z,48.58
2019-04-01T18:19:13.672Z,48.69
2019-04-01T18:21:42.001Z,49.12
2019-04-01T18:24:10.355Z,49.23
2019-04-01T18:26:39.070Z,49.24
2019-04-01T18:29:07.374Z,49.40
2019-04-01T18:31:35.666Z,49.42
2019-04-01T18:34:04.001Z,49.46
2019-04-01T18:36:34.837Z,49.76
2019-04-01T18:39:03.958Z,49.96
2019-04-01T18:41:33.204Z,50.10
2019-04-01T18:44:02.341Z,50.21
2019-04-01T18:46:30.736Z,50.34
2019-04-01T18:48:59.019Z,50.50
2019-04-01T18:51:27.348Z,50.71
2019-04-01T18:53:55.666Z,51.04
2019-04-01T18:56:24.000Z,51.01
2019-04-01T18:58:53.139Z,51.17
2019-04-01T19:01:22.395Z,51.27
2019-04-01T19:03:50.688Z,51.48
2019-04-01T19:06:19.015Z,51.78
2019-04-01T19:08:47.335Z,51.93
2019-04-01T19:11:15.672Z,52.05
2019-04-01T19:13:43.984Z,52.22
2019-04-01T19:16:15.468Z,52.46
2019-04-01T19:18:42.645Z,52.64
2019-04-01T19:21:10.972Z,52.83
2019-04-01T19:23:39.283Z,53.10
2019-04-01T19:26:10.060Z,53.46
2019-04-01T19:28:37.731Z,53.56
2019-04-01T19:31:06.025Z,53.77
2019-04-01T19:33:34.342Z,53.93
2019-04-01T19:36:02.737Z,54.16
2019-04-01T19:38:31.064Z,54.40
2019-04-01T19:40:59.910Z,54.68
2019-04-01T19:43:28.499Z,54.87
2019-04-01T19:45:57.122Z,55.08
2019-04-01T19:48:25.418Z,55.36
2019-04-01T19:50:53.726Z,55.59
2019-04-01T19:53:22.104Z,55.86
2019-04-01T19:55:50.415Z,56.22
2019-04-01T19:58:18.738Z,56.38
2019-04-01T20:00:47.106Z,56.52
2019-04-01T20:03:15.782Z,56.71
2019-04-01T20:05:44.096Z,56.86
2019-04-01T20:08:14.098Z,57.04
2019-04-01T20:10:42.700Z,57.13
2019-04-01T20:13:11.019Z,57.21
2019-04-01T20:15:40.349Z,57.38
2019-04-01T20:18:09.373Z,57.52
2019-04-01T20:20:37.687Z,57.66
2019-04-01T20:23:05.989Z,57.72
2019-04-01T20:25:34.288Z,57.85
2019-04-01T20:28:02.596Z,57.83
2019-04-01T20:30:31.221Z,57.88
2019-04-01T20:32:59.624Z,57.99
2019-04-01T20:35:28.329Z,58.03
2019-04-01T20:37:58.276Z,58.17
2019-04-01T20:40:26.649Z,58.16
2019-04-01T20:42:54.953Z,58.26
2019-04-01T20:45:23.624Z,58.54
2019-04-01T20:47:51.920Z,58.63
2019-04-01T20:50:20.253Z,58.58
2019-04-01T20:52:50.089Z,58.53
2019-04-01T20:55:18.636Z,58.53
2019-04-01T20:57:46.919Z,58.58
2019-04-01T21:00:15.497Z,58.73
2019-04-01T21:02:44.057Z,58.92
2019-04-01T21:05:12.435Z,59.01
2019-04-01T21:07:40.713Z,59.13
2019-04-01T21:10:09.562Z,59.21
2019-04-01T21:12:38.158Z,59.41
2019-04-01T21:15:08.181Z,59.61
2019-04-01T21:17:36.583Z,59.79
2019-04-01T21:20:07.908Z,59.89
2019-04-01T21:22:36.906Z,59.97
2019-04-01T21:25:06.752Z,60.11
2019-04-01T21:27:35.049Z,60.37
2019-04-01T21:30:04.982Z,60.44
2019-04-01T21:32:33.285Z,60.69
2019-04-01T21:35:01.588Z,60.88
2019-04-01T21:37:29.968Z,61.04
2019-04-01T21:39:59.153Z,61.34
2019-04-01T21:42:27.853Z,61.50
2019-04-01T21:44:56.160Z,61.67
2019-04-01T21:47:24.471Z,61.75
2019-04-01T21:49:53.041Z,61.95
2019-04-01T21:52:21.856Z,62.19
2019-04-01T21:54:50.137Z,62.24
2019-04-01T21:57:20.545Z,62.41
2019-04-01T21:59:48.987Z,62.58
2019-04-01T22:02:17.285Z,62.89
2019-04-01T22:04:45.608Z,63.08
2019-04-01T22:07:14.180Z,63.23
2019-04-01T22:09:42.479Z,63.40
2019-04-01T22:12:10.777Z,63.41
2019-04-01T22:14:39.102Z,63.46
2019-04-01T22:17:07.386Z,63.54
2019-04-01T22:19:35.691Z,63.68
2019-04-01T22:22:03.998Z,63.88
2019-04-01T22:24:33.027Z,63.97
2019-04-01T22:27:02.215Z,64.03
2019-04-01T22:29:30.527Z,64.17
2019-04-01T22:31:58.826Z,64.34
2019-04-01T22:34:27.107Z,64.57
2019-04-01T22:36:55.701Z,64.67
2019-04-01T22:39:27.319Z,64.69
2019-04-01T22:41:54.311Z,64.81
2019-04-01T22:44:23.358Z,64.83
2019-04-01T22:46:52.201Z,65.10
2019-04-01T22:49:20.789Z,65.30
2019-04-01T22:51:49.373Z,65.37
2019-04-01T22:54:17.663Z,65.42
2019-04-01T22:56:45.965Z,65.48
2019-04-01T22:59:14.526Z,65.73
2019-04-01T23:01:44.172Z,65.94
2019-04-01T23:04:13.374Z,66.06
2019-04-01T23:06:42.001Z,66.17
2019-04-01T23:09:10.590Z,66.31
2019-04-01T23:11:38.921Z,66.40
2019-04-01T23:14:07.563Z,66.64
2019-04-01T23:16:35.875Z,66.73
2019-04-01T23:19:05.068Z,66.77
2019-04-01T23:21:33.564Z,66.80
2019-04-01T23:24:01.890Z,66.92
2019-04-01T23:26:30.204Z,66.99
2019-04-01T23:28:58.494Z,67.12
2019-04-01T23:31:26.795Z,67.15
2019-04-01T23:33:55.110Z,67.27
2019-04-01T23:36:23.418Z,67.36
2019-04-01T23:38:51.800Z,67.40
2019-04-01T23:41:20.102Z,67.43
2019-04-01T23:43:48.417Z,67.43
2019-04-01T23:46:16.745Z,67.43
2019-04-01T23:48:45.053Z,67.61
2019-04-01T23:51:13.343Z,67.67
2019-04-01T23:53:41.662Z,67.74
2019-04-01T23:56:10.010Z,67.89
2019-04-01T23:58:38.305Z,67.98
